createdAt,value
2022-08-24T00:00:35.252Z,5.40
2022-08-24T00:03:02.726Z,4.27
2022-08-24T00:05:29.943Z,5.70
2022-08-24T00:07:57.065Z,4.93
2022-08-24T00:10:24.608Z,4.90
2022-08-24T00:12:51.575Z,4.60
2022-08-24T00:15:18.480Z,6.10
2022-08-24T00:17:45.552Z,5.37
2022-08-24T00:20:13.467Z,5.00
2022-08-24T00:22:41.212Z,4.63
2022-08-24T00:25:09.943Z,5.00
2022-08-24T00:27:38.143Z,4.97
2022-08-24T00:30:08.488Z,5.00
2022-08-24T00:32:37.874Z,5.47
2022-08-24T00:35:07.490Z,5.70
2022-08-24T00:37:35.299Z,4.23
2022-08-24T00:40:04.914Z,5.20
2022-08-24T00:42:32.423Z,5.23
2022-08-24T00:44:59.801Z,5.43
2022-08-24T00:47:34.576Z,5.63
2022-08-24T00:50:06.064Z,5.33
2022-08-24T00:52:39.271Z,5.17
2022-08-24T00:55:14.075Z,5.20
2022-08-24T00:57:44.907Z,4.43
2022-08-24T01:00:18.336Z,4.87
2022-08-24T01:02:48.974Z,5.20
2022-08-24T01:05:19.145Z,5.50
2022-08-24T01:07:50.738Z,5.00
2022-08-24T01:10:22.779Z,6.20
2022-08-24T01:13:00.285Z,5.37
2022-08-24T01:15:32.971Z,5.40
2022-08-24T01:18:19.887Z,4.87
2022-08-24T01:20:52.631Z,5.17
2022-08-24T01:23:36.973Z,5.57
2022-08-24T01:26:05.860Z,5.73
2022-08-24T01:28:34.607Z,5.87
2022-08-24T01:31:03.957Z,5.40
2022-08-24T01:33:32.964Z,5.50
2022-08-24T01:36:14.560Z,5.50
2022-08-24T01:38:42.251Z,5.90
2022-08-24T01:41:09.139Z,5.80
2022-08-24T01:43:39.231Z,6.40
2022-08-24T01:46:06.364Z,5.00
2022-08-24T01:48:33.229Z,6.60
2022-08-24T01:51:00.058Z,5.40
2022-08-24T01:53:26.943Z,5.47
2022-08-24T01:55:53.891Z,6.00
2022-08-24T01:58:20.841Z,6.03
2022-08-24T02:00:47.912Z,5.90
2022-08-24T02:03:15.030Z,6.20
2022-08-24T02:05:42.021Z,6.03
2022-08-24T02:08:08.936Z,7.60
2022-08-24T02:10:35.852Z,6.17
2022-08-24T02:13:03.693Z,5.53
2022-08-24T02:15:40.072Z,5.33
2022-08-24T02:18:14.817Z,5.40
2022-08-24T02:20:42.689Z,6.47
2022-08-24T02:23:09.586Z,5.93
2022-08-24T02:25:58.865Z,6.00
2022-08-24T02:28:25.720Z,6.70
2022-08-24T02:30:53.649Z,6.00
2022-08-24T02:33:20.816Z,6.83
2022-08-24T02:35:47.652Z,5.93
2022-08-24T02:38:14.536Z,6.00
2022-08-24T02:40:41.353Z,6.67
2022-08-24T02:43:08.272Z,6.33
2022-08-24T02:45:39.452Z,6.50
2022-08-24T02:48:06.336Z,6.70
2022-08-24T02:50:33.209Z,6.33
2022-08-24T02:53:00.525Z,5.83
2022-08-24T02:55:27.360Z,6.03
2022-08-24T02:57:54.228Z,6.30
2022-08-24T03:00:22.987Z,6.33
2022-08-24T03:02:49.993Z,6.67
2022-08-24T03:05:17.356Z,6.17
2022-08-24T03:07:44.445Z,6.20
2022-08-24T03:10:11.576Z,6.33
2022-08-24T03:12:38.631Z,5.67
2022-08-24T03:15:09.876Z,6.23
2022-08-24T03:17:37.944Z,6.17
2022-08-24T03:20:11.073Z,5.70
2022-08-24T03:22:38.977Z,5.90
2022-08-24T03:25:06.549Z,6.00
2022-08-24T03:27:33.372Z,5.33
2022-08-24T03:30:01.195Z,6.73
2022-08-24T03:32:28.648Z,6.10
2022-08-24T03:34:55.954Z,6.43
2022-08-24T03:37:22.845Z,6.63
2022-08-24T03:39:51.105Z,6.60
2022-08-24T03:42:18.421Z,6.17
2022-08-24T03:44:45.244Z,5.57
2022-08-24T03:47:12.132Z,5.90
2022-08-24T03:49:39.207Z,6.47
2022-08-24T03:52:06.983Z,6.00
2022-08-24T03:54:34.713Z,5.70
2022-08-24T03:57:01.838Z,6.10
2022-08-24T03:59:28.893Z,5.57
2022-08-24T04:01:57.466Z,5.57
2022-08-24T04:04:25.249Z,5.67
2022-08-24T04:06:52.164Z,5.60
2022-08-24T04:09:19.297Z,5.43
2022-08-24T04:11:46.289Z,5.30
2022-08-24T04:14:26.467Z,5.87
2022-08-24T04:16:57.469Z,5.70
2022-08-24T04:19:25.849Z,5.83
2022-08-24T04:21:53.330Z,6.10
2022-08-24T04:24:20.526Z,5.37
2022-08-24T04:26:47.739Z,6.33
2022-08-24T04:29:17.069Z,7.30
2022-08-24T04:31:44.352Z,6.40
2022-08-24T04:34:13.282Z,6.00
2022-08-24T04:36:42.309Z,6.10
2022-08-24T04:39:09.150Z,6.30
2022-08-24T04:41:36.153Z,7.40
2022-08-24T04:44:03.635Z,7.37
2022-08-24T04:46:30.909Z,6.60
2022-08-24T04:48:58.167Z,7.10
2022-08-24T04:51:25.002Z,6.33
2022-08-24T04:53:52.047Z,6.20
2022-08-24T04:56:23.962Z,5.73
2022-08-24T04:58:55.521Z,6.63
2022-08-24T05:01:26.030Z,7.60
2022-08-24T05:03:55.152Z,6.50
2022-08-24T05:06:24.474Z,7.03
2022-08-24T05:08:51.778Z,6.80
2022-08-24T05:11:19.952Z,7.00
2022-08-24T05:13:47.252Z,6.20
2022-08-24T05:16:18.022Z,6.73
2022-08-24T05:18:45.971Z,6.63
2022-08-24T05:21:16.629Z,6.73
2022-08-24T05:23:45.292Z,6.80
2022-08-24T05:26:17.652Z,6.20
2022-08-24T05:28:45.717Z,5.40
2022-08-24T05:31:18.669Z,6.30
2022-08-24T05:33:46.276Z,6.17
2022-08-24T05:36:29.144Z,5.33
2022-08-24T05:38:57.816Z,5.03
2022-08-24T05:41:24.845Z,6.20
2022-08-24T05:43:52.473Z,6.17
2022-08-24T05:46:20.674Z,6.90
2022-08-24T05:48:49.998Z,6.63
2022-08-24T05:51:21.168Z,7.03
2022-08-24T05:53:48.057Z,6.33
2022-08-24T05:56:17.341Z,6.60
2022-08-24T05:58:45.896Z,5.83
2022-08-24T06:01:18.792Z,7.20
2022-08-24T06:03:45.796Z,6.30
2022-08-24T06:06:13.625Z,9.10
2022-08-24T06:08:43.088Z,7.97
2022-08-24T06:11:10.872Z,7.03
2022-08-24T06:13:38.270Z,8.00
2022-08-24T06:16:20.954Z,6.90
2022-08-24T06:18:49.923Z,6.63
2022-08-24T06:21:20.032Z,7.07
2022-08-24T06:23:48.537Z,7.20
2022-08-24T06:26:34.406Z,8.03
2022-08-24T06:29:02.451Z,7.27
2022-08-24T06:31:29.951Z,7.70
2022-08-24T06:34:07.105Z,7.83
2022-08-24T06:36:34.565Z,7.73
2022-08-24T06:39:01.633Z,6.57
2022-08-24T06:41:28.842Z,6.50
2022-08-24T06:43:55.824Z,7.53
2022-08-24T06:46:25.687Z,6.47
2022-08-24T06:48:54.598Z,6.40
2022-08-24T06:51:23.170Z,7.10
2022-08-24T06:53:53.761Z,6.37
2022-08-24T06:56:38.050Z,7.40
2022-08-24T06:59:05.717Z,7.17
2022-08-24T07:01:33.000Z,7.13
2022-08-24T07:04:00.489Z,6.30
2022-08-24T07:06:27.633Z,5.17
2022-08-24T07:08:56.580Z,6.87
2022-08-24T07:11:25.097Z,6.27
2022-08-24T07:13:52.294Z,5.83
2022-08-24T07:16:20.696Z,5.50
2022-08-24T07:18:50.152Z,5.40
2022-08-24T07:21:20.092Z,5.03
2022-08-24T07:23:48.889Z,6.20
2022-08-24T07:26:23.337Z,6.47
2022-08-24T07:29:01.428Z,5.63
2022-08-24T07:31:32.046Z,6.47
2022-08-24T07:34:02.064Z,5.50
2022-08-24T07:36:29.240Z,6.90
2022-08-24T07:38:57.546Z,6.40
2022-08-24T07:44:15.065Z,5.60
2022-08-24T07:46:42.760Z,6.00
2022-08-24T07:49:21.484Z,6.50
2022-08-24T07:51:58.445Z,7.10
2022-08-24T07:54:27.702Z,6.70
2022-08-24T07:56:55.206Z,6.17
2022-08-24T07:59:22.937Z,5.60
2022-08-24T08:01:50.757Z,7.07
2022-08-24T08:04:22.139Z,8.10
2022-08-24T08:06:49.405Z,6.97
2022-08-24T08:09:16.585Z,6.73
2022-08-24T08:11:43.650Z,6.23
2022-08-24T08:14:11.043Z,5.60
2022-08-24T08:16:40.993Z,6.83
2022-08-24T08:19:10.170Z,5.80
2022-08-24T08:22:05.594Z,7.33
2022-08-24T08:24:32.809Z,7.57
2022-08-24T08:27:01.061Z,8.60
2022-08-24T08:29:28.573Z,6.40
2022-08-24T08:31:56.745Z,5.60
2022-08-24T08:34:23.974Z,5.97
2022-08-24T08:36:51.921Z,5.73
2022-08-24T08:39:20.917Z,5.80
2022-08-24T08:42:12.909Z,5.70
2022-08-24T08:45:05.117Z,6.70
2022-08-24T08:47:44.405Z,6.73
2022-08-24T08:50:14.347Z,7.10
2022-08-24T08:53:12.876Z,6.13
2022-08-24T08:55:49.117Z,8.17
2022-08-24T08:58:42.042Z,6.70
2022-08-24T09:01:32.777Z,6.70
2022-08-24T09:04:46.681Z,7.90
2022-08-24T09:07:32.278Z,6.27
2022-08-24T09:10:21.706Z,7.33
2022-08-24T09:13:13.297Z,6.80
2022-08-24T09:15:57.632Z,6.40
2022-08-24T09:19:03.810Z,6.30
2022-08-24T09:21:38.824Z,6.40
2022-08-24T09:24:13.366Z,6.90
2022-08-24T09:27:14.258Z,6.60
2022-08-24T09:30:08.190Z,6.53
2022-08-24T09:32:39.154Z,6.43
2022-08-24T09:35:26.855Z,9.20
2022-08-24T09:38:12.854Z,7.07
2022-08-24T09:41:09.448Z,7.80
2022-08-24T09:44:02.739Z,6.70
2022-08-24T09:47:07.470Z,7.03
2022-08-24T09:49:56.122Z,8.00
2022-08-24T09:52:28.946Z,8.10
2022-08-24T09:55:21.145Z,8.43
2022-08-24T09:58:16.730Z,5.67
2022-08-24T10:00:56.948Z,7.70
2022-08-24T10:03:38.897Z,10.00
2022-08-24T10:06:40.937Z,7.70
2022-08-24T10:09:20.595Z,12.57
2022-08-24T10:12:17.388Z,9.20
2022-08-24T10:14:52.835Z,7.40
2022-08-24T10:17:20.077Z,5.60
2022-08-24T10:20:16.779Z,6.40
2022-08-24T10:23:02.290Z,7.23
2022-08-24T10:25:51.998Z,8.07
2022-08-24T10:28:39.978Z,5.80
2022-08-24T10:31:23.667Z,7.70
2022-08-24T10:33:59.361Z,7.67
2022-08-24T10:36:44.762Z,7.70
2022-08-24T10:39:43.586Z,6.50
2022-08-24T10:42:41.414Z,7.50
2022-08-24T10:45:29.971Z,8.50
2022-08-24T10:48:36.255Z,8.63
2022-08-24T10:51:21.534Z,8.50
2022-08-24T10:53:53.297Z,7.30
2022-08-24T10:56:51.894Z,8.03
2022-08-24T10:59:28.866Z,7.43
2022-08-24T11:02:12.631Z,7.43
2022-08-24T11:04:40.638Z,7.53
2022-08-24T11:07:15.299Z,8.03
2022-08-24T11:09:48.524Z,7.80
2022-08-24T11:12:28.056Z,7.37
2022-08-24T11:14:58.750Z,7.40
2022-08-24T11:17:28.906Z,6.90
2022-08-24T11:19:57.390Z,6.70
2022-08-24T11:22:57.966Z,7.00
2022-08-24T11:25:32.716Z,8.87
2022-08-24T11:28:25.343Z,7.47
2022-08-24T11:30:52.203Z,7.10
2022-08-24T11:33:35.253Z,7.57
2022-08-24T11:36:03.172Z,7.27
2022-08-24T11:38:34.539Z,9.77
2022-08-24T11:41:10.312Z,6.70
2022-08-24T11:43:55.167Z,6.03
2022-08-24T11:46:51.321Z,7.70
2022-08-24T11:49:37.267Z,9.13
2022-08-24T11:52:25.603Z,7.93
2022-08-24T11:54:56.645Z,7.20
2022-08-24T11:57:47.685Z,7.63
2022-08-24T12:00:19.640Z,6.73
2022-08-24T12:03:10.696Z,7.20
2022-08-24T12:06:11.523Z,6.90
2022-08-24T12:08:49.103Z,6.60
2022-08-24T12:11:36.337Z,5.93
2022-08-24T12:14:19.544Z,6.13
2022-08-24T12:17:02.528Z,7.20
2022-08-24T12:19:37.479Z,5.30
2022-08-24T12:22:08.043Z,6.60
2022-08-24T12:24:37.727Z,6.30
2022-08-24T12:27:22.225Z,7.30
2022-08-24T12:30:11.537Z,7.37
2022-08-24T12:32:43.450Z,6.93
2022-08-24T12:35:26.556Z,7.80
2022-08-24T12:38:26.439Z,7.60
2022-08-24T12:40:57.671Z,10.00
2022-08-24T12:43:42.375Z,8.13
2022-08-24T12:46:12.962Z,7.13
2022-08-24T12:49:03.104Z,7.13
2022-08-24T12:52:03.343Z,7.40
2022-08-24T12:54:36.223Z,8.03
2022-08-24T12:57:31.595Z,6.40
2022-08-24T13:00:24.615Z,7.17
2022-08-24T13:03:03.025Z,8.90
2022-08-24T13:05:58.240Z,7.03
2022-08-24T13:08:38.299Z,7.97
2022-08-24T13:11:29.077Z,6.70
2022-08-24T13:13:58.687Z,7.33
2022-08-24T13:16:45.943Z,7.63
2022-08-24T13:19:38.868Z,6.83
2022-08-24T13:22:12.824Z,7.13
2022-08-24T13:24:39.823Z,7.70
2022-08-24T13:27:12.590Z,7.17
2022-08-24T13:29:42.951Z,6.60
2022-08-24T13:32:21.336Z,6.80
2022-08-24T13:34:51.607Z,6.83
2022-08-24T13:37:24.123Z,7.90
2022-08-24T13:40:12.308Z,7.60
2022-08-24T13:43:05.328Z,7.53
2022-08-24T13:45:32.156Z,8.00
2022-08-24T13:48:04.205Z,8.73
2022-08-24T13:50:43.546Z,8.43
2022-08-24T13:56:33.380Z,8.27
2022-08-24T13:59:22.602Z,7.90
2022-08-24T14:02:03.109Z,6.50
2022-08-24T14:04:53.176Z,7.20
2022-08-24T14:07:21.477Z,8.90
2022-08-24T14:10:02.395Z,7.23
2022-08-24T14:12:34.690Z,6.33
2022-08-24T14:15:15.927Z,8.33
2022-08-24T14:18:28.096Z,10.50
2022-08-24T14:21:01.190Z,8.33
2022-08-24T14:23:52.212Z,6.67
2022-08-24T14:26:34.669Z,8.97
2022-08-24T14:29:33.409Z,8.57
2022-08-24T14:32:12.027Z,8.80
2022-08-24T14:34:48.800Z,10.20
2022-08-24T14:37:21.141Z,8.10
2022-08-24T14:40:09.242Z,8.60
2022-08-24T14:42:44.069Z,8.53
2022-08-24T14:45:36.893Z,7.13
2022-08-24T14:48:36.137Z,7.63
2022-08-24T14:51:35.109Z,6.80
2022-08-24T14:54:14.891Z,8.60
2022-08-24T14:57:04.538Z,6.80
2022-08-24T14:59:53.934Z,8.43
2022-08-24T15:02:30.078Z,7.80
2022-08-24T15:05:14.313Z,8.30
2022-08-24T15:07:51.667Z,9.40
2022-08-24T15:10:24.906Z,6.80
2022-08-24T15:13:02.799Z,9.57
2022-08-24T15:15:55.686Z,7.00
2022-08-24T15:18:28.415Z,7.70
2022-08-24T15:21:28.906Z,7.50
2022-08-24T15:27:18.258Z,9.13
2022-08-24T15:29:57.939Z,9.93
2022-08-24T15:32:45.210Z,12.10
2022-08-24T15:35:24.474Z,8.93
2022-08-24T15:37:51.350Z,9.60
2022-08-24T15:40:33.133Z,8.10
2022-08-24T15:43:03.931Z,7.87
2022-08-24T15:45:32.298Z,7.70
2022-08-24T15:48:01.303Z,8.00
2022-08-24T15:50:33.550Z,10.10
2022-08-24T15:53:25.006Z,7.33
2022-08-24T15:55:53.433Z,9.10
2022-08-24T15:58:27.399Z,7.30
2022-08-24T16:01:38.798Z,8.90
2022-08-24T16:04:12.574Z,9.63
2022-08-24T16:06:48.262Z,10.00
2022-08-24T16:09:20.999Z,7.63
2022-08-24T16:12:01.798Z,7.50
2022-08-24T16:14:32.435Z,8.30
2022-08-24T16:17:01.981Z,8.23
2022-08-24T16:19:33.341Z,8.17
2022-08-24T16:22:13.002Z,8.20
2022-08-24T16:24:42.021Z,7.87
2022-08-24T16:27:17.342Z,8.30
2022-08-24T16:29:48.015Z,6.47
2022-08-24T16:32:30.141Z,7.40
2022-08-24T16:35:01.476Z,8.90
2022-08-24T16:37:28.326Z,8.47
2022-08-24T16:39:55.231Z,7.30
2022-08-24T16:42:25.961Z,6.90
2022-08-24T16:44:53.431Z,8.13
2022-08-24T16:47:21.188Z,8.60
2022-08-24T16:49:48.884Z,6.97
2022-08-24T16:52:16.083Z,10.33
2022-08-24T16:54:43.160Z,7.83
2022-08-24T16:57:16.398Z,8.63
2022-08-24T16:59:45.867Z,6.93
2022-08-24T17:02:14.727Z,10.33
2022-08-24T17:04:42.871Z,7.97
2022-08-24T17:07:14.203Z,8.83
2022-08-24T17:09:44.413Z,8.30
2022-08-24T17:12:11.543Z,8.10
2022-08-24T17:14:39.600Z,8.43
2022-08-24T17:17:09.323Z,8.40
2022-08-24T17:19:37.286Z,7.37
2022-08-24T17:22:05.668Z,7.73
2022-08-24T17:24:33.561Z,8.43
2022-08-24T17:27:01.427Z,8.93
2022-08-24T17:29:28.891Z,8.13
2022-08-24T17:31:55.987Z,6.70
2022-08-24T17:34:24.861Z,9.17
2022-08-24T17:36:55.351Z,7.00
2022-08-24T17:39:25.728Z,8.20
2022-08-24T17:41:56.533Z,7.10
2022-08-24T17:44:28.178Z,7.33
2022-08-24T17:46:58.369Z,8.20
2022-08-24T17:49:26.683Z,8.30
2022-08-24T17:51:56.147Z,6.53
2022-08-24T17:54:23.527Z,7.30
2022-08-24T17:56:51.214Z,7.80
2022-08-24T17:59:25.356Z,8.23
2022-08-24T18:01:54.661Z,8.00
2022-08-24T18:04:25.758Z,9.00
2022-08-24T18:06:53.520Z,7.70
2022-08-24T18:09:37.498Z,7.27
2022-08-24T18:12:06.338Z,7.73
2022-08-24T18:14:34.660Z,8.27
2022-08-24T18:17:05.536Z,9.43
2022-08-24T18:19:34.191Z,9.47
2022-08-24T18:22:02.185Z,8.83
2022-08-24T18:24:32.800Z,9.30
2022-08-24T18:27:24.284Z,9.93
2022-08-24T18:29:55.049Z,7.67
2022-08-24T18:32:28.578Z,8.50
2022-08-24T18:34:58.928Z,8.23
2022-08-24T18:37:25.901Z,8.53
2022-08-24T18:39:52.892Z,8.37
2022-08-24T18:42:21.491Z,9.23
2022-08-24T18:44:48.992Z,7.17
2022-08-24T18:47:16.404Z,7.77
2022-08-24T18:49:43.588Z,7.67
2022-08-24T18:52:15.480Z,7.03
2022-08-24T18:54:50.348Z,7.40
2022-08-24T18:57:18.682Z,7.40
2022-08-24T18:59:46.151Z,7.67
2022-08-24T19:02:31.384Z,7.10
2022-08-24T19:05:01.433Z,6.90
2022-08-24T19:07:30.497Z,6.70
2022-08-24T19:09:59.140Z,6.33
2022-08-24T19:12:28.636Z,7.00
2022-08-24T19:14:58.637Z,6.10
2022-08-24T19:17:26.697Z,7.37
2022-08-24T19:19:53.939Z,6.37
2022-08-24T19:22:21.469Z,5.93
2022-08-24T19:24:48.771Z,5.47
2022-08-24T19:27:16.515Z,5.23
2022-08-24T19:29:55.540Z,6.07
2022-08-24T19:32:27.251Z,7.07
2022-08-24T19:34:56.978Z,5.80
2022-08-24T19:37:24.111Z,5.80
2022-08-24T19:39:51.435Z,6.10
2022-08-24T19:42:18.912Z,5.20
2022-08-24T19:45:04.625Z,4.93
2022-08-24T19:47:34.690Z,5.10
2022-08-24T19:50:03.263Z,5.63
2022-08-24T19:52:32.759Z,5.50
2022-08-24T19:55:00.319Z,4.30
2022-08-24T19:57:33.350Z,4.23
2022-08-24T20:00:19.093Z,4.20
2022-08-24T20:02:47.064Z,4.03
2022-08-24T20:05:14.831Z,3.97
2022-08-24T20:07:43.684Z,5.07
2022-08-24T20:10:12.838Z,4.40
2022-08-24T20:12:41.653Z,4.47
2022-08-24T20:15:09.096Z,4.60
2022-08-24T20:17:36.863Z,4.20
2022-08-24T20:20:06.571Z,3.43
2022-08-24T20:22:33.715Z,3.70
2022-08-24T20:25:00.700Z,3.90
2022-08-24T20:27:28.899Z,4.03
2022-08-24T20:29:56.135Z,3.50
2022-08-24T20:32:23.427Z,4.10
2022-08-24T20:34:50.919Z,3.60
2022-08-24T20:37:24.755Z,3.23
2022-08-24T20:39:53.690Z,3.67
2022-08-24T20:42:21.639Z,3.23
2022-08-24T20:44:50.665Z,4.00
2022-08-24T20:47:18.699Z,3.90
2022-08-24T20:49:46.055Z,3.30
2022-08-24T20:52:13.419Z,3.20
2022-08-24T20:54:41.209Z,3.07
2022-08-24T20:57:12.247Z,3.33
2022-08-24T20:59:39.267Z,5.50
2022-08-24T21:02:06.286Z,2.63
2022-08-24T21:04:33.474Z,3.00
2022-08-24T21:07:00.662Z,2.43
2022-08-24T21:09:27.795Z,3.40
2022-08-24T21:11:55.198Z,3.80
2022-08-24T21:14:22.270Z,3.47
2022-08-24T21:16:49.586Z,3.23
2022-08-24T21:19:17.991Z,3.37
2022-08-24T21:21:47.139Z,3.07
2022-08-24T21:24:14.883Z,4.23
2022-08-24T21:26:42.410Z,4.17
2022-08-24T21:29:11.419Z,2.57
2022-08-24T21:31:39.625Z,2.60
2022-08-24T21:34:26.655Z,2.73
2022-08-24T21:36:55.363Z,3.10
2022-08-24T21:39:22.406Z,2.80
2022-08-24T21:41:49.486Z,3.40
2022-08-24T21:44:17.070Z,3.43
2022-08-24T21:46:44.230Z,2.60
2022-08-24T21:49:12.035Z,3.97
2022-08-24T21:51:40.699Z,3.30
2022-08-24T21:54:08.934Z,3.00
2022-08-24T21:56:36.095Z,3.77
2022-08-24T21:59:03.656Z,2.77
2022-08-24T22:01:31.165Z,2.90
2022-08-24T22:03:59.154Z,4.57
2022-08-24T22:06:31.022Z,3.90
2022-08-24T22:08:59.720Z,4.07
2022-08-24T22:11:27.032Z,3.87
2022-08-24T22:13:54.718Z,4.30
2022-08-24T22:16:22.866Z,4.30
2022-08-24T22:18:50.336Z,4.10
2022-08-24T22:21:21.821Z,4.23
2022-08-24T22:23:49.477Z,3.80
2022-08-24T22:26:17.086Z,4.80
2022-08-24T22:28:44.345Z,3.80
2022-08-24T22:31:27.150Z,3.60
2022-08-24T22:33:56.740Z,3.87
2022-08-24T22:36:26.077Z,3.43
2022-08-24T22:38:56.335Z,4.33
2022-08-24T22:41:24.009Z,5.00
2022-08-24T22:44:10.260Z,3.80
2022-08-24T22:46:37.915Z,5.73
2022-08-24T22:49:06.206Z,4.83
2022-08-24T22:51:34.257Z,4.30
2022-08-24T22:54:01.501Z,4.57
2022-08-24T22:56:31.192Z,3.33
2022-08-24T22:58:59.681Z,3.80
2022-08-24T23:01:33.393Z,5.37
2022-08-24T23:04:02.323Z,5.20
2022-08-24T23:06:29.544Z,3.77
2022-08-24T23:08:57.225Z,3.20
2022-08-24T23:11:27.157Z,4.23
2022-08-24T23:13:58.928Z,3.57
2022-08-24T23:16:27.096Z,2.73
2022-08-24T23:19:12.542Z,3.07
2022-08-24T23:21:39.606Z,2.90
2022-08-24T23:24:07.901Z,3.33
2022-08-24T23:26:36.101Z,3.20
2022-08-24T23:29:03.727Z,3.63
2022-08-24T23:31:31.147Z,3.50
2022-08-24T23:33:59.245Z,3.30
2022-08-24T23:36:27.529Z,2.57
2022-08-24T23:38:57.578Z,3.17
2022-08-24T23:41:27.861Z,3.17
2022-08-24T23:43:56.110Z,3.70
2022-08-24T23:46:23.410Z,3.23
2022-08-24T23:48:55.114Z,5.00
2022-08-24T23:51:23.316Z,3.33
2022-08-24T23:53:51.302Z,3.23
2022-08-24T23:56:22.669Z,3.00
2022-08-24T23:58:52.906Z,3.27
